createdAt,value
2019-04-28T00:01:57.319Z,11.42
2019-04-28T00:04:23.440Z,11.42
2019-04-28T00:06:49.566Z,11.44
2019-04-28T00:09:15.790Z,11.46
2019-04-28T00:11:41.912Z,11.46
2019-04-28T00:14:08.504Z,11.45
2019-04-28T00:16:34.879Z,11.48
2019-04-28T00:19:01.342Z,11.46
2019-04-28T00:21:44.504Z,11.41
2019-04-28T00:24:23.059Z,11.39
2019-04-28T00:26:52.043Z,11.39
2019-04-28T00:29:18.714Z,11.35
2019-04-28T00:31:44.980Z,11.30
2019-04-28T00:34:11.613Z,11.29
2019-04-28T00:36:38.022Z,11.27
2019-04-28T00:39:05.050Z,11.28
2019-04-28T00:41:31.182Z,11.28
2019-04-28T00:43:57.238Z,11.26
2019-04-28T00:46:25.260Z,11.25
2019-04-28T00:48:51.412Z,11.23
2019-04-28T00:51:17.506Z,11.22
2019-04-28T00:53:43.920Z,11.23
2019-04-28T00:56:11.759Z,11.25
2019-04-28T00:58:37.995Z,11.24
2019-04-28T01:01:15.135Z,11.19
2019-04-28T01:03:42.049Z,11.17
2019-04-28T01:06:08.313Z,11.17
2019-04-28T01:08:34.608Z,11.17
2019-04-28T01:11:01.826Z,11.16
2019-04-28T01:13:28.164Z,11.19
2019-04-28T01:18:36.488Z,11.17
2019-04-28T01:21:02.723Z,11.10
2019-04-28T01:23:30.263Z,10.95
2019-04-28T01:25:56.732Z,10.77
2019-04-28T01:28:22.879Z,10.63
2019-04-28T01:30:54.363Z,10.60
2019-04-28T01:33:22.391Z,10.62
2019-04-28T01:35:49.407Z,10.66
2019-04-28T01:38:15.654Z,10.69
2019-04-28T01:40:41.775Z,10.67
2019-04-28T01:43:09.689Z,10.69
2019-04-28T01:45:36.041Z,10.69
2019-04-28T01:48:02.380Z,10.59
2019-04-28T01:50:29.971Z,10.60
2019-04-28T01:52:56.350Z,10.55
2019-04-28T01:55:22.472Z,10.60
2019-04-28T01:57:49.758Z,10.66
2019-04-28T02:00:24.569Z,10.71
2019-04-28T02:02:45.621Z,10.74
2019-04-28T02:05:11.935Z,10.77
2019-04-28T02:07:38.063Z,10.80
2019-04-28T02:10:04.908Z,10.81
2019-04-28T02:12:31.125Z,10.79
2019-04-28T02:14:57.236Z,10.79
2019-04-28T02:17:23.374Z,10.76
2019-04-28T02:19:51.175Z,10.76
2019-04-28T02:22:25.417Z,10.78
2019-04-28T02:24:51.639Z,10.68
2019-04-28T02:27:17.987Z,10.52
2019-04-28T02:29:44.083Z,10.55
2019-04-28T02:32:12.037Z,10.45
2019-04-28T02:34:40.710Z,10.35
2019-04-28T02:37:06.117Z,10.40
2019-04-28T02:39:32.282Z,10.49
2019-04-28T02:42:01.208Z,10.58
2019-04-28T02:44:30.678Z,10.62
2019-04-28T02:46:54.629Z,10.64
2019-04-28T02:49:22.651Z,10.64
2019-04-28T02:52:07.393Z,10.64
2019-04-28T02:54:33.506Z,10.58
2019-04-28T02:57:01.351Z,10.57
2019-04-28T02:59:30.360Z,10.57
2019-04-28T03:01:55.730Z,10.63
2019-04-28T03:04:21.847Z,10.69
2019-04-28T03:06:48.005Z,10.73
2019-04-28T03:09:14.230Z,10.75
2019-04-28T03:11:42.753Z,10.71
2019-04-28T03:14:11.061Z,10.67
2019-04-28T03:16:36.498Z,10.65
2019-04-28T03:19:02.631Z,10.59
2019-04-28T03:21:31.075Z,10.46
2019-04-28T03:23:56.791Z,10.40
2019-04-28T03:26:33.666Z,10.46
2019-04-28T03:29:04.616Z,10.52
2019-04-28T03:32:14.862Z,10.58
2019-04-28T03:34:17.219Z,10.57
2019-04-28T03:36:43.364Z,10.53
2019-04-28T03:39:10.996Z,10.54
2019-04-28T03:41:37.425Z,10.55
2019-04-28T03:44:03.544Z,10.48
2019-04-28T03:46:31.500Z,10.47
2019-04-28T03:48:57.505Z,10.46
2019-04-28T03:51:23.699Z,10.47
2019-04-28T03:53:50.710Z,10.47
2019-04-28T03:56:16.861Z,10.47
2019-04-28T03:58:42.886Z,10.43
2019-04-28T04:01:10.792Z,10.36
2019-04-28T04:03:37.149Z,10.38
2019-04-28T04:06:03.394Z,10.42
2019-04-28T04:08:31.033Z,10.41
2019-04-28T04:11:00.252Z,10.40
2019-04-28T04:13:32.661Z,10.42
2019-04-28T04:21:36.516Z,10.43
2019-04-28T04:24:02.649Z,10.39
2019-04-28T04:26:31.080Z,10.35
2019-04-28T04:28:56.692Z,10.34
2019-04-28T04:31:22.724Z,10.32
2019-04-28T04:33:50.618Z,10.26
2019-04-28T04:36:16.840Z,10.27
2019-04-28T04:38:46.311Z,10.28
2019-04-28T04:41:11.407Z,10.29
2019-04-28T04:43:37.648Z,10.30
2019-04-28T04:48:56.496Z,10.29
2019-04-28T04:51:22.657Z,10.26
2019-04-28T04:53:51.145Z,10.26
2019-04-28T04:56:16.828Z,10.27
2019-04-28T04:58:42.845Z,10.24
2019-04-28T05:01:16.635Z,10.24
2019-04-28T05:03:44.596Z,10.24
2019-04-28T05:06:29.784Z,10.25
2019-04-28T05:08:56.060Z,10.26
2019-04-28T05:11:22.211Z,10.25
2019-04-28T05:13:49.789Z,10.29
2019-04-28T05:16:16.053Z,10.31
2019-04-28T05:18:42.105Z,10.25
2019-04-28T05:21:08.225Z,10.24
2019-04-28T05:23:36.086Z,10.26
2019-04-28T05:26:08.032Z,10.30
2019-04-28T05:28:32.477Z,10.30
2019-04-28T05:31:00.039Z,10.29
2019-04-28T05:33:30.673Z,10.27
2019-04-28T05:35:54.598Z,10.24
2019-04-28T05:38:20.867Z,10.10
2019-04-28T05:40:46.982Z,10.12
2019-04-28T05:43:13.144Z,10.17
2019-04-28T05:45:39.807Z,10.18
2019-04-28T05:48:08.873Z,10.15
2019-04-28T05:50:35.981Z,10.20
2019-04-28T05:53:10.761Z,10.20
2019-04-28T05:55:50.061Z,10.23
2019-04-28T05:58:20.933Z,10.19
2019-04-28T06:01:05.403Z,10.20
2019-04-28T06:03:33.001Z,10.26
2019-04-28T06:05:59.972Z,10.28
2019-04-28T06:08:31.082Z,10.31
2019-04-28T06:11:02.448Z,10.31
2019-04-28T06:13:30.287Z,10.30
2019-04-28T06:15:56.520Z,10.30
2019-04-28T06:18:22.676Z,10.34
2019-04-28T06:20:49.788Z,10.33
2019-04-28T06:23:16.200Z,10.33
2019-04-28T06:25:42.495Z,10.34
2019-04-28T06:28:08.615Z,10.33
2019-04-28T06:30:34.924Z,10.34
2019-04-28T06:33:07.532Z,10.35
2019-04-28T06:35:29.309Z,10.36
2019-04-28T06:37:55.587Z,10.36
2019-04-28T06:40:21.806Z,10.33
2019-04-28T06:42:48.061Z,10.35
2019-04-28T06:45:14.221Z,10.29
2019-04-28T06:47:40.441Z,10.28
2019-04-28T06:50:06.812Z,10.31
2019-04-28T06:52:33.126Z,10.34
2019-04-28T06:54:59.348Z,10.34
2019-04-28T06:57:25.932Z,10.34
2019-04-28T06:59:54.197Z,10.33
2019-04-28T07:02:20.316Z,10.36
2019-04-28T07:04:46.499Z,10.38
2019-04-28T07:07:12.727Z,10.39
2019-04-28T07:09:38.850Z,10.35
2019-04-28T07:12:05.002Z,10.38
2019-04-28T07:14:31.034Z,10.40
2019-04-28T07:16:57.323Z,10.41
2019-04-28T07:19:23.636Z,10.44
2019-04-28T07:21:57.424Z,10.44
2019-04-28T07:24:23.725Z,10.36
2019-04-28T07:26:49.853Z,10.31
2019-04-28T07:29:15.981Z,10.31
2019-04-28T07:31:42.249Z,10.34
2019-04-28T07:34:08.486Z,10.36
2019-04-28T07:36:37.882Z,10.38
2019-04-28T07:39:05.675Z,10.38
2019-04-28T07:41:31.810Z,10.37
2019-04-28T07:43:57.962Z,10.34
2019-04-28T07:46:27.086Z,10.15
2019-04-28T07:48:53.270Z,9.94
2019-04-28T07:51:23.503Z,9.82
2019-04-28T07:53:54.457Z,9.70
2019-04-28T07:56:20.625Z,9.68
2019-04-28T07:58:46.753Z,9.58
2019-04-28T08:01:13.005Z,9.50
2019-04-28T08:03:49.335Z,9.44
2019-04-28T08:06:09.884Z,9.44
2019-04-28T08:08:36.021Z,9.55
2019-04-28T08:11:02.540Z,9.61
2019-04-28T08:13:28.650Z,9.59
2019-04-28T08:15:54.817Z,9.49
2019-04-28T08:18:20.956Z,9.44
2019-04-28T08:20:47.191Z,9.50
2019-04-28T08:23:13.347Z,9.54
2019-04-28T08:25:39.501Z,9.46
2019-04-28T08:28:05.659Z,9.45
2019-04-28T08:30:31.915Z,9.46
2019-04-28T08:36:04.170Z,9.53
2019-04-28T08:38:30.309Z,9.36
2019-04-28T08:40:56.494Z,9.31
2019-04-28T08:43:22.536Z,9.27
2019-04-28T08:45:48.670Z,9.20
2019-04-28T08:48:14.812Z,9.05
2019-04-28T08:50:43.967Z,9.18
2019-04-28T08:53:10.112Z,9.24
2019-04-28T08:55:38.099Z,9.22
2019-04-28T08:58:04.337Z,9.31
2019-04-28T09:00:30.468Z,9.25
2019-04-28T09:02:56.613Z,9.27
2019-04-28T09:05:22.731Z,9.37
2019-04-28T09:07:48.859Z,9.44
2019-04-28T09:10:15.021Z,9.35
2019-04-28T09:12:41.152Z,9.35
2019-04-28T09:15:07.518Z,9.34
2019-04-28T09:17:33.767Z,9.34
2019-04-28T09:19:59.989Z,9.42
2019-04-28T09:22:26.116Z,9.40
2019-04-28T09:24:52.357Z,9.38
2019-04-28T09:27:18.478Z,9.43
2019-04-28T09:29:44.591Z,9.52
2019-04-28T09:32:10.716Z,9.55
2019-04-28T09:34:36.846Z,9.56
2019-04-28T09:37:02.976Z,9.62
2019-04-28T09:39:47.607Z,9.61
2019-04-28T09:42:21.328Z,9.61
2019-04-28T09:44:47.444Z,9.57
2019-04-28T09:47:13.564Z,9.61
2019-04-28T09:49:39.679Z,9.58
2019-04-28T09:52:05.793Z,9.65
2019-04-28T09:54:31.924Z,9.68
2019-04-28T09:56:57.951Z,9.75
2019-04-28T09:59:24.068Z,9.74
2019-04-28T10:01:50.091Z,9.75
2019-04-28T10:04:16.225Z,9.76
2019-04-28T10:06:42.371Z,9.72
2019-04-28T10:09:08.587Z,9.70
2019-04-28T10:11:34.728Z,9.74
2019-04-28T10:14:00.849Z,9.75
2019-04-28T10:16:27.075Z,9.73
2019-04-28T10:18:53.237Z,9.77
2019-04-28T10:21:19.468Z,9.76
2019-04-28T10:23:45.633Z,9.79
2019-04-28T10:26:11.754Z,9.82
2019-04-28T10:28:37.918Z,9.88
2019-04-28T10:31:05.825Z,9.92
2019-04-28T10:33:31.998Z,9.95
2019-04-28T10:35:58.018Z,9.91
2019-04-28T10:38:24.143Z,9.89
2019-04-28T10:40:54.717Z,9.91
2019-04-28T10:43:20.877Z,9.88
2019-04-28T10:45:57.677Z,9.93
2019-04-28T10:48:24.137Z,9.98
2019-04-28T10:50:50.423Z,10.03
2019-04-28T10:53:16.680Z,9.98
2019-04-28T10:55:44.880Z,9.87
2019-04-28T10:58:11.274Z,9.83
2019-04-28T11:00:40.447Z,9.93
2019-04-28T11:03:06.683Z,9.98
2019-04-28T11:05:34.881Z,9.95
2019-04-28T11:08:03.124Z,9.96
2019-04-28T11:10:29.284Z,10.03
2019-04-28T11:12:57.475Z,10.07
2019-04-28T11:18:23.220Z,10.12
2019-04-28T11:20:49.404Z,10.13
2019-04-28T11:23:15.550Z,10.10
2019-04-28T11:25:41.723Z,10.09
2019-04-28T11:28:09.723Z,10.14
2019-04-28T11:30:35.991Z,10.16
2019-04-28T11:33:04.140Z,10.20
2019-04-28T11:35:32.251Z,10.26
2019-04-28T11:37:58.381Z,10.21
2019-04-28T11:40:25.706Z,10.20
2019-04-28T11:42:51.882Z,10.22
2019-04-28T11:45:18.259Z,10.20
2019-04-28T11:47:44.594Z,10.19
2019-04-28T11:50:10.911Z,10.20
2019-04-28T11:52:37.129Z,10.24
2019-04-28T11:55:05.458Z,10.31
2019-04-28T11:57:31.703Z,10.32
2019-04-28T11:59:57.956Z,10.34
2019-04-28T12:02:24.228Z,10.29
2019-04-28T12:04:52.289Z,10.30
2019-04-28T12:07:18.538Z,10.27
2019-04-28T12:10:04.256Z,10.30
2019-04-28T12:12:25.025Z,10.25
2019-04-28T12:14:55.995Z,10.14
2019-04-28T12:17:27.099Z,10.17
2019-04-28T12:19:55.147Z,10.26
2019-04-28T12:22:21.293Z,10.35
2019-04-28T12:24:47.488Z,10.39
2019-04-28T12:27:13.616Z,10.43
2019-04-28T12:29:39.737Z,10.47
2019-04-28T12:32:05.871Z,10.46
2019-04-28T12:34:32.000Z,10.47
2019-04-28T12:36:58.189Z,10.47
2019-04-28T12:39:24.322Z,10.40
2019-04-28T12:41:50.531Z,10.37
2019-04-28T12:44:16.675Z,10.35
2019-04-28T12:46:43.984Z,10.38
2019-04-28T12:49:12.007Z,10.41
2019-04-28T12:51:38.282Z,10.34
2019-04-28T12:54:06.332Z,10.32
2019-04-28T12:56:32.462Z,10.33
2019-04-28T12:59:00.437Z,10.28
2019-04-28T13:01:31.569Z,10.34
2019-04-28T13:04:22.743Z,10.26
2019-04-28T13:07:05.460Z,10.21
2019-04-28T13:09:31.694Z,10.27
2019-04-28T13:11:57.840Z,10.31
2019-04-28T13:14:23.979Z,10.34
2019-04-28T13:16:50.112Z,10.37
2019-04-28T13:19:22.241Z,10.36
2019-04-28T13:21:53.328Z,10.33
2019-04-28T13:24:19.670Z,10.35
2019-04-28T13:26:53.638Z,10.38
2019-04-28T13:29:20.430Z,10.30
2019-04-28T13:31:49.089Z,10.25
2019-04-28T13:34:21.730Z,10.24
2019-04-28T13:36:47.430Z,10.24
2019-04-28T13:39:24.379Z,10.23
2019-04-28T13:41:50.741Z,10.24
2019-04-28T13:44:37.504Z,10.23
2019-04-28T13:47:13.472Z,10.26
2019-04-28T13:49:58.049Z,10.25
2019-04-28T13:52:24.846Z,10.24
2019-04-28T13:55:04.335Z,10.19
2019-04-28T13:57:30.486Z,10.18
2019-04-28T13:59:58.609Z,10.19
2019-04-28T14:02:40.480Z,10.18
2019-04-28T14:07:47.251Z,10.29
2019-04-28T14:10:13.553Z,10.31
2019-04-28T14:12:39.879Z,10.31
2019-04-28T14:15:06.404Z,10.25
2019-04-28T14:17:32.559Z,10.22
2019-04-28T14:19:58.652Z,10.22
2019-04-28T14:22:25.004Z,10.17
2019-04-28T14:24:51.046Z,10.15
2019-04-28T14:27:17.442Z,10.07
2019-04-28T14:29:43.727Z,10.10
2019-04-28T14:32:10.106Z,10.09
2019-04-28T14:34:36.651Z,10.12
2019-04-28T14:37:03.203Z,10.15
2019-04-28T14:39:29.661Z,10.15
2019-04-28T14:41:55.794Z,10.13
2019-04-28T14:44:22.064Z,10.07
2019-04-28T14:46:48.417Z,10.09
2019-04-28T14:49:14.723Z,10.06
2019-04-28T14:51:41.132Z,10.05
2019-04-28T14:54:07.488Z,9.94
2019-04-28T14:56:34.000Z,9.82
2019-04-28T14:59:03.970Z,9.84
2019-04-28T15:01:44.818Z,9.83
2019-04-28T15:04:27.699Z,9.87
2019-04-28T15:06:59.305Z,9.84
2019-04-28T15:09:25.554Z,9.77
2019-04-28T15:11:59.320Z,9.78
2019-04-28T15:14:25.515Z,9.75
2019-04-28T15:16:51.652Z,9.82
2019-04-28T15:19:18.051Z,9.91
2019-04-28T15:21:44.138Z,9.97
2019-04-28T15:24:10.262Z,9.95
2019-04-28T15:26:36.398Z,9.93
2019-04-28T15:29:02.553Z,9.90
2019-04-28T15:31:28.671Z,9.91
2019-04-28T15:33:54.903Z,9.95
2019-04-28T15:36:21.047Z,9.89
2019-04-28T15:38:49.269Z,9.76
2019-04-28T15:41:21.883Z,9.72
2019-04-28T15:43:43.254Z,9.57
2019-04-28T15:46:09.391Z,9.58
2019-04-28T15:48:35.560Z,9.56
2019-04-28T15:51:01.775Z,9.56
2019-04-28T15:53:28.593Z,9.63
2019-04-28T15:55:56.510Z,9.72
2019-04-28T15:58:29.294Z,9.79
2019-04-28T16:00:55.568Z,9.87
2019-04-28T16:03:21.797Z,9.91
2019-04-28T16:05:47.935Z,9.94
2019-04-28T16:08:14.178Z,9.98
2019-04-28T16:10:40.508Z,9.99
2019-04-28T16:13:07.118Z,10.01
2019-04-28T16:15:33.238Z,9.92
2019-04-28T16:18:02.352Z,9.87
2019-04-28T16:20:29.765Z,9.89
2019-04-28T16:22:56.208Z,9.90
2019-04-28T16:26:02.909Z,9.82
2019-04-28T16:28:29.083Z,9.78
2019-04-28T16:30:55.189Z,9.81
2019-04-28T16:33:21.313Z,9.86
2019-04-28T16:35:48.199Z,9.88
2019-04-28T16:38:14.553Z,9.88
2019-04-28T16:40:46.691Z,9.83
2019-04-28T16:43:17.906Z,9.84
2019-04-28T16:45:44.013Z,9.88
2019-04-28T16:48:10.168Z,9.88
2019-04-28T16:50:36.299Z,9.83
2019-04-28T16:53:02.453Z,9.71
2019-04-28T16:55:30.498Z,9.74
2019-04-28T16:58:01.402Z,9.78
2019-04-28T17:00:35.249Z,9.76
2019-04-28T17:03:01.461Z,9.80
2019-04-28T17:05:27.491Z,9.80
2019-04-28T17:07:53.643Z,9.85
2019-04-28T17:10:19.758Z,9.85
2019-04-28T17:12:48.495Z,9.83
2019-04-28T17:15:14.610Z,9.72
2019-04-28T17:17:40.770Z,9.71
2019-04-28T17:20:07.244Z,9.73
2019-04-28T17:22:33.354Z,9.76
2019-04-28T17:24:59.481Z,9.79
2019-04-28T17:27:25.594Z,9.80
2019-04-28T17:29:51.641Z,9.76
2019-04-28T17:32:17.971Z,9.72
2019-04-28T17:34:44.098Z,9.66
2019-04-28T17:37:10.720Z,9.65
2019-04-28T17:39:37.971Z,9.63
2019-04-28T17:42:04.508Z,9.61
2019-04-28T17:44:30.635Z,9.59
2019-04-28T17:46:56.664Z,9.56
2019-04-28T17:49:24.588Z,9.58
2019-04-28T17:51:50.697Z,9.56
2019-04-28T17:54:16.609Z,9.50
2019-04-28T17:56:42.734Z,9.51
2019-04-28T17:59:08.839Z,9.48
2019-04-28T18:01:36.873Z,9.49
2019-04-28T18:04:23.258Z,9.49
2019-04-28T18:07:00.390Z,9.46
2019-04-28T18:09:26.611Z,9.43
2019-04-28T18:11:52.722Z,9.40
2019-04-28T18:14:18.943Z,9.42
2019-04-28T18:17:04.931Z,9.46
2019-04-28T18:19:31.158Z,9.45
2019-04-28T18:21:57.310Z,9.40
2019-04-28T18:24:24.616Z,9.44
2019-04-28T18:26:50.892Z,9.40
2019-04-28T18:29:17.012Z,9.31
2019-04-28T18:31:45.094Z,9.31
2019-04-28T18:34:29.929Z,9.34
2019-04-28T18:37:09.776Z,9.34
2019-04-28T18:39:54.375Z,9.31
2019-04-28T18:42:38.696Z,9.28
2019-04-28T18:45:05.045Z,9.29
2019-04-28T18:47:30.992Z,9.24
2019-04-28T18:49:57.109Z,9.23
2019-04-28T18:52:23.240Z,9.29
2019-04-28T18:54:49.444Z,9.33
2019-04-28T18:57:15.499Z,9.38
2019-04-28T18:59:41.466Z,9.35
2019-04-28T19:02:18.116Z,9.35
2019-04-28T19:04:44.338Z,9.33
2019-04-28T19:07:12.258Z,9.35
2019-04-28T19:09:40.200Z,9.23
2019-04-28T19:15:04.854Z,9.22
2019-04-28T19:17:38.720Z,9.21
2019-04-28T19:20:05.129Z,9.23
2019-04-28T19:22:36.238Z,9.25
2019-04-28T19:25:04.507Z,9.31
2019-04-28T19:27:30.423Z,9.28
2019-04-28T19:29:57.645Z,9.29
2019-04-28T19:32:24.050Z,9.29
2019-04-28T19:34:50.186Z,9.26
2019-04-28T19:37:16.413Z,9.23
2019-04-28T19:39:42.545Z,9.17
2019-04-28T19:42:08.679Z,9.17
2019-04-28T19:44:34.932Z,9.11
2019-04-28T19:47:01.120Z,9.13
2019-04-28T19:49:27.227Z,9.16
2019-04-28T19:51:53.369Z,9.03
2019-04-28T19:54:21.289Z,9.00
2019-04-28T19:56:52.559Z,8.99
2019-04-28T19:59:23.647Z,9.02
2019-04-28T20:01:49.872Z,9.05
2019-04-28T20:04:16.223Z,9.05
2019-04-28T20:06:42.646Z,9.05
2019-04-28T20:09:08.822Z,9.07
2019-04-28T20:11:34.938Z,9.07
2019-04-28T20:14:01.061Z,9.05
2019-04-28T20:16:27.222Z,9.00
2019-04-28T20:18:53.246Z,9.00
2019-04-28T20:21:19.506Z,9.03
2019-04-28T20:23:45.626Z,9.00
2019-04-28T20:26:11.842Z,8.97
2019-04-28T20:28:37.952Z,9.00
2019-04-28T20:31:04.685Z,9.00
2019-04-28T20:33:30.834Z,9.02
2019-04-28T20:38:45.176Z,9.03
2019-04-28T20:41:13.242Z,9.04
2019-04-28T20:43:39.403Z,9.07
2019-04-28T20:46:05.535Z,9.06
2019-04-28T20:48:31.673Z,9.06
2019-04-28T20:50:57.795Z,9.07
2019-04-28T20:53:23.930Z,9.07
2019-04-28T20:55:50.059Z,9.05
2019-04-28T20:58:16.112Z,9.00
2019-04-28T21:00:42.319Z,8.91
2019-04-28T21:03:08.543Z,8.88
2019-04-28T21:05:34.695Z,8.87
2019-04-28T21:08:00.855Z,8.87
2019-04-28T21:10:37.287Z,8.88
2019-04-28T21:12:55.014Z,8.85
2019-04-28T21:15:21.143Z,8.85
2019-04-28T21:17:47.265Z,8.85
2019-04-28T21:20:13.421Z,8.79
2019-04-28T21:22:39.538Z,8.79
2019-04-28T21:25:06.063Z,8.84
2019-04-28T21:27:32.192Z,8.83
2019-04-28T21:29:58.316Z,8.83
2019-04-28T21:32:24.445Z,8.85
2019-04-28T21:34:50.580Z,8.81
2019-04-28T21:37:18.399Z,8.77
2019-04-28T21:39:44.778Z,8.80
2019-04-28T21:42:12.810Z,8.77
2019-04-28T21:44:52.942Z,8.79
2019-04-28T21:47:23.446Z,8.83
2019-04-28T21:49:49.568Z,8.83
2019-04-28T21:52:15.694Z,8.82
2019-04-28T21:54:41.844Z,8.77
2019-04-28T21:57:07.870Z,8.75
2019-04-28T21:59:33.893Z,8.79
2019-04-28T22:02:00.174Z,8.79
2019-04-28T22:04:26.302Z,8.74
2019-04-28T22:06:52.590Z,8.73
2019-04-28T22:09:18.924Z,8.77
2019-04-28T22:11:45.203Z,8.82
2019-04-28T22:14:11.317Z,8.81
2019-04-28T22:16:37.502Z,8.81
2019-04-28T22:19:03.620Z,8.82
2019-04-28T22:21:29.797Z,8.82
2019-04-28T22:23:57.730Z,8.82
2019-04-28T22:26:43.467Z,8.80
2019-04-28T22:29:09.833Z,8.80
2019-04-28T22:31:35.846Z,8.79
2019-04-28T22:34:01.969Z,8.78
2019-04-28T22:36:28.061Z,8.78
2019-04-28T22:38:54.180Z,8.80
2019-04-28T22:41:20.305Z,8.80
2019-04-28T22:43:46.492Z,8.81
2019-04-28T22:46:12.658Z,8.82
2019-04-28T22:48:38.878Z,8.78
2019-04-28T22:51:05.069Z,8.78
2019-04-28T22:53:33.110Z,8.79
2019-04-28T22:58:47.645Z,8.79
2019-04-28T23:01:15.700Z,8.79
2019-04-28T23:03:46.479Z,8.72
2019-04-28T23:06:12.708Z,8.74
2019-04-28T23:08:38.886Z,8.77
2019-04-28T23:11:05.014Z,8.75
2019-04-28T23:13:31.185Z,8.75
2019-04-28T23:15:57.398Z,8.69
2019-04-28T23:18:23.626Z,8.71
2019-04-28T23:21:08.989Z,8.69
2019-04-28T23:23:35.163Z,8.65
2019-04-28T23:26:03.003Z,8.72
2019-04-28T23:28:29.301Z,8.70
2019-04-28T23:30:55.438Z,8.72
2019-04-28T23:33:21.668Z,8.77
2019-04-28T23:35:47.789Z,8.79
2019-04-28T23:38:13.905Z,8.83
2019-04-28T23:40:42.009Z,8.85
2019-04-28T23:43:15.571Z,8.82
2019-04-28T23:45:41.669Z,8.80
2019-04-28T23:48:07.792Z,8.77
2019-04-28T23:50:35.820Z,8.75
2019-04-28T23:53:06.404Z,8.78
2019-04-28T23:55:32.533Z,8.81
2019-04-28T23:57:58.629Z,8.81
